sensor_id;sensor_type;location;lat;lon;timestamp;P1;durP1;ratioP1;P2;durP2;ratioP2
67564;SDS011;54393;53.556;49.216;2022-08-06T00:01:49;6.60;;;4.80;;
67564;SDS011;54393;53.556;49.216;2022-08-06T00:04:16;4.68;;;4.15;;
67564;SDS011;54393;53.556;49.216;2022-08-06T00:06:43;6.05;;;4.50;;
67564;SDS011;54393;53.556;49.216;2022-08-06T00:09:09;4.60;;;4.30;;
67564;SDS011;54393;53.556;49.216;2022-08-06T00:11:37;4.62;;;4.22;;
67564;SDS011;54393;53.556;49.216;2022-08-06T00:14:04;4.45;;;4.15;;
67564;SDS011;54393;53.556;49.216;2022-08-06T00:16:31;4.30;;;4.00;;
67564;SDS011;54393;53.556;49.216;2022-08-06T00:18:58;4.75;;;4.25;;
67564;SDS011;54393;53.556;49.216;2022-08-06T00:21:24;5.45;;;4.93;;
67564;SDS011;54393;53.556;49.216;2022-08-06T00:23:51;4.65;;;4.25;;
67564;SDS011;54393;53.556;49.216;2022-08-06T00:26:17;4.47;;;4.10;;
67564;SDS011;54393;53.556;49.216;2022-08-06T00:28:43;4.72;;;4.32;;
67564;SDS011;54393;53.556;49.216;2022-08-06T00:31:10;5.20;;;4.30;;
67564;SDS011;54393;53.556;49.216;2022-08-06T00:33:37;4.47;;;4.18;;
67564;SDS011;54393;53.556;49.216;2022-08-06T00:36:05;5.35;;;4.30;;
67564;SDS011;54393;53.556;49.216;2022-08-06T00:38:31;4.05;;;3.70;;
67564;SDS011;54393;53.556;49.216;2022-08-06T00:40:57;5.95;;;4.37;;
67564;SDS011;54393;53.556;49.216;2022-08-06T00:43:24;4.93;;;4.40;;
67564;SDS011;54393;53.556;49.216;2022-08-06T00:45:51;6.22;;;4.07;;
67564;SDS011;54393;53.556;49.216;2022-08-06T00:48:18;5.50;;;4.00;;
67564;SDS011;54393;53.556;49.216;2022-08-06T00:50:44;4.12;;;3.83;;
67564;SDS011;54393;53.556;49.216;2022-08-06T00:53:10;5.28;;;4.10;;
67564;SDS011;54393;53.556;49.216;2022-08-06T00:55:37;5.05;;;3.97;;
67564;SDS011;54393;53.556;49.216;2022-08-06T00:58:04;5.95;;;4.20;;
67564;SDS011;54393;53.556;49.216;2022-08-06T01:00:34;4.47;;;4.07;;
67564;SDS011;54393;53.556;49.216;2022-08-06T01:03:00;4.47;;;4.15;;
67564;SDS011;54393;53.556;49.216;2022-08-06T01:05:27;4.53;;;4.12;;
67564;SDS011;54393;53.556;49.216;2022-08-06T01:07:53;3.90;;;3.60;;
67564;SDS011;54393;53.556;49.216;2022-08-06T01:10:20;4.90;;;4.50;;
67564;SDS011;54393;53.556;49.216;2022-08-06T01:12:49;4.53;;;4.18;;
67564;SDS011;54393;53.556;49.216;2022-08-06T01:15:16;4.22;;;3.70;;
67564;SDS011;54393;53.556;49.216;2022-08-06T01:17:47;4.05;;;3.75;;
67564;SDS011;54393;53.556;49.216;2022-08-06T01:23:04;4.00;;;3.70;;
67564;SDS011;54393;53.556;49.216;2022-08-06T01:29:20;4.10;;;3.80;;
67564;SDS011;54393;53.556;49.216;2022-08-06T01:34:33;5.90;;;4.07;;
67564;SDS011;54393;53.556;49.216;2022-08-06T01:37:12;4.97;;;3.75;;
67564;SDS011;54393;53.556;49.216;2022-08-06T01:39:48;4.57;;;4.18;;
67564;SDS011;54393;53.556;49.216;2022-08-06T01:42:18;4.43;;;4.07;;
67564;SDS011;54393;53.556;49.216;2022-08-06T01:44:46;4.90;;;4.10;;
67564;SDS011;54393;53.556;49.216;2022-08-06T01:47:15;4.85;;;3.92;;
67564;SDS011;54393;53.556;49.216;2022-08-06T01:49:46;4.15;;;3.75;;
67564;SDS011;54393;53.556;49.216;2022-08-06T01:52:15;6.80;;;3.45;;
67564;SDS011;54393;53.556;49.216;2022-08-06T01:54:44;4.15;;;3.78;;
67564;SDS011;54393;53.556;49.216;2022-08-06T01:57:11;4.65;;;4.20;;
67564;SDS011;54393;53.556;49.216;2022-08-06T01:59:43;3.92;;;3.62;;
67564;SDS011;54393;53.556;49.216;2022-08-06T02:02:13;3.42;;;3.22;;
67564;SDS011;54393;53.556;49.216;2022-08-06T02:04:45;4.00;;;3.60;;
67564;SDS011;54393;53.556;49.216;2022-08-06T02:07:15;3.87;;;3.60;;
67564;SDS011;54393;53.556;49.216;2022-08-06T02:09:43;4.70;;;3.92;;
67564;SDS011;54393;53.556;49.216;2022-08-06T02:12:12;4.07;;;3.70;;
67564;SDS011;54393;53.556;49.216;2022-08-06T02:14:47;3.85;;;3.53;;
67564;SDS011;54393;53.556;49.216;2022-08-06T02:17:27;4.12;;;3.70;;
67564;SDS011;54393;53.556;49.216;2022-08-06T02:19:55;4.00;;;3.37;;
67564;SDS011;54393;53.556;49.216;2022-08-06T02:22:29;4.80;;;3.83;;
67564;SDS011;54393;53.556;49.216;2022-08-06T02:25:00;3.65;;;3.35;;
67564;SDS011;54393;53.556;49.216;2022-08-06T02:27:28;4.25;;;3.37;;
67564;SDS011;54393;53.556;49.216;2022-08-06T02:29:56;3.70;;;3.40;;
67564;SDS011;54393;53.556;49.216;2022-08-06T02:32:24;3.83;;;3.53;;
67564;SDS011;54393;53.556;49.216;2022-08-06T02:34:50;3.85;;;3.55;;
67564;SDS011;54393;53.556;49.216;2022-08-06T02:37:19;4.47;;;3.67;;
67564;SDS011;54393;53.556;49.216;2022-08-06T02:39:57;3.78;;;3.30;;
67564;SDS011;54393;53.556;49.216;2022-08-06T02:45:35;3.67;;;3.37;;
67564;SDS011;54393;53.556;49.216;2022-08-06T02:48:10;4.28;;;3.65;;
67564;SDS011;54393;53.556;49.216;2022-08-06T02:50:57;4.50;;;4.07;;
67564;SDS011;54393;53.556;49.216;2022-08-06T02:53:29;4.75;;;3.50;;
67564;SDS011;54393;53.556;49.216;2022-08-06T02:56:06;4.10;;;3.80;;
67564;SDS011;54393;53.556;49.216;2022-08-06T02:58:37;4.32;;;3.83;;
67564;SDS011;54393;53.556;49.216;2022-08-06T03:01:06;4.00;;;3.53;;
67564;SDS011;54393;53.556;49.216;2022-08-06T03:03:35;4.18;;;3.78;;
67564;SDS011;54393;53.556;49.216;2022-08-06T03:06:04;5.15;;;3.95;;
67564;SDS011;54393;53.556;49.216;2022-08-06T03:08:31;4.28;;;3.90;;
67564;SDS011;54393;53.556;49.216;2022-08-06T03:10:59;3.80;;;3.50;;
67564;SDS011;54393;53.556;49.216;2022-08-06T03:13:26;4.07;;;3.75;;
67564;SDS011;54393;53.556;49.216;2022-08-06T03:15:54;4.62;;;3.92;;
67564;SDS011;54393;53.556;49.216;2022-08-06T03:18:21;5.82;;;3.83;;
67564;SDS011;54393;53.556;49.216;2022-08-06T03:20:47;4.00;;;3.70;;
67564;SDS011;54393;53.556;49.216;2022-08-06T03:23:15;4.85;;;4.12;;
67564;SDS011;54393;53.556;49.216;2022-08-06T03:25:42;4.47;;;3.42;;
67564;SDS011;54393;53.556;49.216;2022-08-06T03:28:11;4.40;;;3.50;;
67564;SDS011;54393;53.556;49.216;2022-08-06T03:30:38;5.10;;;3.85;;
67564;SDS011;54393;53.556;49.216;2022-08-06T03:33:13;3.50;;;3.30;;
67564;SDS011;54393;53.556;49.216;2022-08-06T03:35:40;4.05;;;3.75;;
67564;SDS011;54393;53.556;49.216;2022-08-06T03:38:08;5.15;;;3.95;;
67564;SDS011;54393;53.556;49.216;2022-08-06T03:40:38;5.22;;;3.95;;
67564;SDS011;54393;53.556;49.216;2022-08-06T03:43:08;4.90;;;4.05;;
67564;SDS011;54393;53.556;49.216;2022-08-06T03:45:36;4.30;;;4.00;;
67564;SDS011;54393;53.556;49.216;2022-08-06T03:48:05;3.92;;;3.62;;
67564;SDS011;54393;53.556;49.216;2022-08-06T03:50:34;4.10;;;3.70;;
67564;SDS011;54393;53.556;49.216;2022-08-06T03:53:05;4.05;;;3.60;;
67564;SDS011;54393;53.556;49.216;2022-08-06T03:55:35;5.28;;;3.00;;
67564;SDS011;54393;53.556;49.216;2022-08-06T03:58:04;4.40;;;3.97;;
67564;SDS011;54393;53.556;49.216;2022-08-06T04:00:41;3.95;;;3.50;;
67564;SDS011;54393;53.556;49.216;2022-08-06T04:05:44;3.42;;;3.22;;
67564;SDS011;54393;53.556;49.216;2022-08-06T04:08:10;4.15;;;3.75;;
67564;SDS011;54393;53.556;49.216;2022-08-06T04:10:38;3.65;;;3.28;;
67564;SDS011;54393;53.556;49.216;2022-08-06T04:13:08;3.53;;;3.33;;
67564;SDS011;54393;53.556;49.216;2022-08-06T04:15:36;4.30;;;3.90;;
67564;SDS011;54393;53.556;49.216;2022-08-06T04:18:04;4.97;;;3.62;;
67564;SDS011;54393;53.556;49.216;2022-08-06T04:20:35;4.07;;;3.67;;
67564;SDS011;54393;53.556;49.216;2022-08-06T04:23:03;3.95;;;3.65;;
67564;SDS011;54393;53.556;49.216;2022-08-06T04:25:32;4.03;;;3.72;;
67564;SDS011;54393;53.556;49.216;2022-08-06T04:28:02;3.47;;;3.28;;
67564;SDS011;54393;53.556;49.216;2022-08-06T04:30:29;3.67;;;3.40;;
67564;SDS011;54393;53.556;49.216;2022-08-06T04:32:58;4.18;;;3.53;;
67564;SDS011;54393;53.556;49.216;2022-08-06T04:35:26;5.47;;;3.78;;
67564;SDS011;54393;53.556;49.216;2022-08-06T04:37:57;3.85;;;3.35;;
67564;SDS011;54393;53.556;49.216;2022-08-06T04:40:25;6.25;;;3.95;;
67564;SDS011;54393;53.556;49.216;2022-08-06T04:42:51;4.60;;;4.00;;
67564;SDS011;54393;53.556;49.216;2022-08-06T04:45:18;4.25;;;3.87;;
67564;SDS011;54393;53.556;49.216;2022-08-06T04:47:45;3.72;;;3.40;;
67564;SDS011;54393;53.556;49.216;2022-08-06T04:50:13;4.00;;;3.70;;
67564;SDS011;54393;53.556;49.216;2022-08-06T04:52:39;3.50;;;3.22;;
67564;SDS011;54393;53.556;49.216;2022-08-06T04:55:06;4.45;;;3.67;;
67564;SDS011;54393;53.556;49.216;2022-08-06T04:57:33;3.83;;;3.40;;
67564;SDS011;54393;53.556;49.216;2022-08-06T05:00:00;5.32;;;3.83;;
67564;SDS011;54393;53.556;49.216;2022-08-06T05:02:26;4.20;;;3.80;;
67564;SDS011;54393;53.556;49.216;2022-08-06T05:04:53;3.87;;;3.60;;
67564;SDS011;54393;53.556;49.216;2022-08-06T05:07:23;3.85;;;3.55;;
67564;SDS011;54393;53.556;49.216;2022-08-06T05:09:54;4.32;;;3.65;;
67564;SDS011;54393;53.556;49.216;2022-08-06T05:17:46;5.15;;;3.47;;
67564;SDS011;54393;53.556;49.216;2022-08-06T05:20:16;4.15;;;3.80;;
67564;SDS011;54393;53.556;49.216;2022-08-06T05:22:46;4.12;;;3.80;;
67564;SDS011;54393;53.556;49.216;2022-08-06T05:25:16;3.35;;;3.15;;
67564;SDS011;54393;53.556;49.216;2022-08-06T05:27:43;4.07;;;3.53;;
67564;SDS011;54393;53.556;49.216;2022-08-06T05:30:10;3.83;;;3.42;;
67564;SDS011;54393;53.556;49.216;2022-08-06T05:32:40;3.90;;;3.50;;
67564;SDS011;54393;53.556;49.216;2022-08-06T05:35:12;4.20;;;3.72;;
67564;SDS011;54393;53.556;49.216;2022-08-06T05:37:39;4.18;;;3.28;;
67564;SDS011;54393;53.556;49.216;2022-08-06T05:40:05;3.92;;;3.60;;
67564;SDS011;54393;53.556;49.216;2022-08-06T05:42:33;5.62;;;3.70;;
67564;SDS011;54393;53.556;49.216;2022-08-06T05:44:59;4.47;;;3.60;;
67564;SDS011;54393;53.556;49.216;2022-08-06T05:47:27;3.92;;;3.53;;
67564;SDS011;54393;53.556;49.216;2022-08-06T05:50:07;4.05;;;3.60;;
67564;SDS011;54393;53.556;49.216;2022-08-06T05:52:36;3.85;;;3.50;;
67564;SDS011;54393;53.556;49.216;2022-08-06T05:55:27;3.90;;;3.47;;
67564;SDS011;54393;53.556;49.216;2022-08-06T05:58:07;4.07;;;3.72;;
67564;SDS011;54393;53.556;49.216;2022-08-06T06:00:38;3.72;;;3.35;;
67564;SDS011;54393;53.556;49.216;2022-08-06T06:03:08;3.80;;;3.50;;
67564;SDS011;54393;53.556;49.216;2022-08-06T06:05:39;3.80;;;3.45;;
67564;SDS011;54393;53.556;49.216;2022-08-06T06:08:06;3.50;;;3.20;;
67564;SDS011;54393;53.556;49.216;2022-08-06T06:10:34;3.45;;;3.15;;
67564;SDS011;54393;53.556;49.216;2022-08-06T06:13:01;4.28;;;3.87;;
67564;SDS011;54393;53.556;49.216;2022-08-06T06:15:29;3.65;;;3.35;;
67564;SDS011;54393;53.556;49.216;2022-08-06T06:20:58;3.42;;;3.12;;
67564;SDS011;54393;53.556;49.216;2022-08-06T06:26:34;4.73;;;3.03;;
67564;SDS011;54393;53.556;49.216;2022-08-06T06:37:56;3.50;;;3.20;;
67564;SDS011;54393;53.556;49.216;2022-08-06T06:43:15;4.00;;;3.70;;
67564;SDS011;54393;53.556;49.216;2022-08-06T06:46:14;3.90;;;3.33;;
67564;SDS011;54393;53.556;49.216;2022-08-06T06:48:43;3.10;;;2.85;;
67564;SDS011;54393;53.556;49.216;2022-08-06T06:51:31;3.25;;;2.97;;
67564;SDS011;54393;53.556;49.216;2022-08-06T06:54:06;3.28;;;2.97;;
67564;SDS011;54393;53.556;49.216;2022-08-06T06:56:39;3.72;;;3.37;;
67564;SDS011;54393;53.556;49.216;2022-08-06T06:59:16;3.17;;;2.97;;
67564;SDS011;54393;53.556;49.216;2022-08-06T07:01:49;4.30;;;3.30;;
67564;SDS011;54393;53.556;49.216;2022-08-06T07:04:17;6.62;;;2.92;;
67564;SDS011;54393;53.556;49.216;2022-08-06T07:06:44;4.68;;;3.10;;
67564;SDS011;54393;53.556;49.216;2022-08-06T07:09:16;2.90;;;2.67;;
67564;SDS011;54393;53.556;49.216;2022-08-06T07:11:46;3.58;;;3.03;;
67564;SDS011;54393;53.556;49.216;2022-08-06T07:14:14;3.55;;;3.22;;
67564;SDS011;54393;53.556;49.216;2022-08-06T07:16:41;3.35;;;3.05;;
67564;SDS011;54393;53.556;49.216;2022-08-06T07:19:07;3.45;;;3.15;;
67564;SDS011;54393;53.556;49.216;2022-08-06T07:21:35;2.83;;;2.62;;
67564;SDS011;54393;53.556;49.216;2022-08-06T07:24:06;3.33;;;3.03;;
67564;SDS011;54393;53.556;49.216;2022-08-06T07:26:37;3.45;;;3.10;;
67564;SDS011;54393;53.556;49.216;2022-08-06T07:29:06;3.45;;;3.00;;
67564;SDS011;54393;53.556;49.216;2022-08-06T07:31:35;3.05;;;2.75;;
67564;SDS011;54393;53.556;49.216;2022-08-06T07:34:03;2.87;;;2.67;;
67564;SDS011;54393;53.556;49.216;2022-08-06T07:36:32;4.40;;;3.17;;
67564;SDS011;54393;53.556;49.216;2022-08-06T07:39:02;4.12;;;2.80;;
67564;SDS011;54393;53.556;49.216;2022-08-06T07:41:34;3.83;;;2.90;;
67564;SDS011;54393;53.556;49.216;2022-08-06T07:44:01;3.95;;;2.65;;
67564;SDS011;54393;53.556;49.216;2022-08-06T07:46:43;2.80;;;2.60;;
67564;SDS011;54393;53.556;49.216;2022-08-06T07:51:40;3.22;;;2.92;;
67564;SDS011;54393;53.556;49.216;2022-08-06T07:54:08;3.12;;;2.72;;
67564;SDS011;54393;53.556;49.216;2022-08-06T07:56:36;3.30;;;2.67;;
67564;SDS011;54393;53.556;49.216;2022-08-06T07:59:04;3.17;;;2.87;;
67564;SDS011;54393;53.556;49.216;2022-08-06T08:01:32;3.40;;;2.40;;
67564;SDS011;54393;53.556;49.216;2022-08-06T08:03:58;2.47;;;2.28;;
67564;SDS011;54393;53.556;49.216;2022-08-06T08:06:44;3.10;;;2.90;;
67564;SDS011;54393;53.556;49.216;2022-08-06T08:09:14;2.80;;;2.40;;
67564;SDS011;54393;53.556;49.216;2022-08-06T08:11:42;2.92;;;2.72;;
67564;SDS011;54393;53.556;49.216;2022-08-06T08:14:11;2.95;;;2.75;;
67564;SDS011;54393;53.556;49.216;2022-08-06T08:16:39;2.78;;;2.58;;
67564;SDS011;54393;53.556;49.216;2022-08-06T08:19:22;3.08;;;2.78;;
67564;SDS011;54393;53.556;49.216;2022-08-06T08:21:56;2.90;;;2.62;;
67564;SDS011;54393;53.556;49.216;2022-08-06T08:24:24;2.67;;;2.47;;
67564;SDS011;54393;53.556;49.216;2022-08-06T08:26:52;2.87;;;2.67;;
67564;SDS011;54393;53.556;49.216;2022-08-06T08:29:18;2.70;;;2.50;;
67564;SDS011;54393;53.556;49.216;2022-08-06T08:31:45;2.55;;;2.40;;
67564;SDS011;54393;53.556;49.216;2022-08-06T08:34:11;2.80;;;2.60;;
67564;SDS011;54393;53.556;49.216;2022-08-06T08:36:38;2.75;;;2.50;;
67564;SDS011;54393;53.556;49.216;2022-08-06T08:39:05;2.60;;;2.40;;
67564;SDS011;54393;53.556;49.216;2022-08-06T08:41:55;2.75;;;2.55;;
67564;SDS011;54393;53.556;49.216;2022-08-06T08:44:35;3.62;;;2.75;;
67564;SDS011;54393;53.556;49.216;2022-08-06T08:47:02;3.47;;;2.50;;
67564;SDS011;54393;53.556;49.216;2022-08-06T08:49:39;2.20;;;2.10;;
67564;SDS011;54393;53.556;49.216;2022-08-06T08:52:07;3.10;;;2.90;;
67564;SDS011;54393;53.556;49.216;2022-08-06T08:54:35;2.37;;;2.28;;
67564;SDS011;54393;53.556;49.216;2022-08-06T08:57:02;2.28;;;2.08;;
67564;SDS011;54393;53.556;49.216;2022-08-06T08:59:29;2.60;;;2.40;;
67564;SDS011;54393;53.556;49.216;2022-08-06T09:01:57;2.35;;;2.22;;
67564;SDS011;54393;53.556;49.216;2022-08-06T09:04:25;3.03;;;2.50;;
67564;SDS011;54393;53.556;49.216;2022-08-06T09:06:52;3.20;;;2.72;;
67564;SDS011;54393;53.556;49.216;2022-08-06T09:09:19;2.50;;;2.30;;
67564;SDS011;54393;53.556;49.216;2022-08-06T09:11:46;2.58;;;2.37;;
67564;SDS011;54393;53.556;49.216;2022-08-06T09:14:12;2.60;;;2.40;;
67564;SDS011;54393;53.556;49.216;2022-08-06T09:16:39;2.40;;;2.22;;
67564;SDS011;54393;53.556;49.216;2022-08-06T09:19:05;2.60;;;2.40;;
67564;SDS011;54393;53.556;49.216;2022-08-06T09:21:32;2.45;;;2.25;;
67564;SDS011;54393;53.556;49.216;2022-08-06T09:23:59;2.55;;;2.20;;
67564;SDS011;54393;53.556;49.216;2022-08-06T09:26:25;2.80;;;2.30;;
67564;SDS011;54393;53.556;49.216;2022-08-06T09:28:52;2.30;;;2.10;;
67564;SDS011;54393;53.556;49.216;2022-08-06T09:31:19;2.10;;;1.90;;
67564;SDS011;54393;53.556;49.216;2022-08-06T09:34:02;2.37;;;2.25;;
67564;SDS011;54393;53.556;49.216;2022-08-06T09:36:40;1.92;;;1.80;;
67564;SDS011;54393;53.556;49.216;2022-08-06T09:39:08;2.35;;;1.92;;
67564;SDS011;54393;53.556;49.216;2022-08-06T09:41:39;2.17;;;2.08;;
67564;SDS011;54393;53.556;49.216;2022-08-06T09:44:11;2.22;;;2.03;;
67564;SDS011;54393;53.556;49.216;2022-08-06T09:46:41;3.05;;;2.30;;
67564;SDS011;54393;53.556;49.216;2022-08-06T09:49:10;2.53;;;2.33;;
67564;SDS011;54393;53.556;49.216;2022-08-06T09:51:38;2.30;;;2.15;;
67564;SDS011;54393;53.556;49.216;2022-08-06T09:54:06;2.10;;;1.90;;
67564;SDS011;54393;53.556;49.216;2022-08-06T09:56:35;1.90;;;1.80;;
67564;SDS011;54393;53.556;49.216;2022-08-06T09:59:08;1.80;;;1.70;;
67564;SDS011;54393;53.556;49.216;2022-08-06T10:01:39;1.98;;;1.80;;
67564;SDS011;54393;53.556;49.216;2022-08-06T10:04:22;1.87;;;1.77;;
67564;SDS011;54393;53.556;49.216;2022-08-06T10:06:59;2.05;;;1.92;;
67564;SDS011;54393;53.556;49.216;2022-08-06T10:09:26;1.80;;;1.70;;
67564;SDS011;54393;53.556;49.216;2022-08-06T10:11:53;1.80;;;1.67;;
67564;SDS011;54393;53.556;49.216;2022-08-06T10:14:21;1.48;;;1.40;;
67564;SDS011;54393;53.556;49.216;2022-08-06T10:19:37;2.40;;;1.90;;
67564;SDS011;54393;53.556;49.216;2022-08-06T10:22:16;1.48;;;1.37;;
67564;SDS011;54393;53.556;49.216;2022-08-06T10:24:44;1.73;;;1.62;;
67564;SDS011;54393;53.556;49.216;2022-08-06T10:27:16;3.00;;;2.00;;
67564;SDS011;54393;53.556;49.216;2022-08-06T10:29:51;1.85;;;1.75;;
67564;SDS011;54393;53.556;49.216;2022-08-06T10:35:04;2.70;;;1.50;;
67564;SDS011;54393;53.556;49.216;2022-08-06T10:37:31;1.87;;;1.77;;
67564;SDS011;54393;53.556;49.216;2022-08-06T10:40:02;1.60;;;1.50;;
67564;SDS011;54393;53.556;49.216;2022-08-06T10:42:29;1.52;;;1.42;;
67564;SDS011;54393;53.556;49.216;2022-08-06T10:44:56;1.58;;;1.48;;
67564;SDS011;54393;53.556;49.216;2022-08-06T10:47:24;1.45;;;1.35;;
67564;SDS011;54393;53.556;49.216;2022-08-06T10:49:51;2.00;;;1.37;;
67564;SDS011;54393;53.556;49.216;2022-08-06T10:52:18;2.17;;;1.67;;
67564;SDS011;54393;53.556;49.216;2022-08-06T10:54:45;1.85;;;1.75;;
67564;SDS011;54393;53.556;49.216;2022-08-06T10:57:11;1.55;;;1.40;;
67564;SDS011;54393;53.556;49.216;2022-08-06T10:59:42;1.60;;;1.50;;
67564;SDS011;54393;53.556;49.216;2022-08-06T11:05:15;1.35;;;1.30;;
67564;SDS011;54393;53.556;49.216;2022-08-06T11:16:23;1.85;;;1.55;;
67564;SDS011;54393;53.556;49.216;2022-08-06T11:19:36;1.20;;;1.10;;
67564;SDS011;54393;53.556;49.216;2022-08-06T11:21:47;1.67;;;1.55;;
67564;SDS011;54393;53.556;49.216;2022-08-06T11:24:15;1.70;;;1.60;;
67564;SDS011;54393;53.556;49.216;2022-08-06T11:26:42;1.60;;;1.50;;
67564;SDS011;54393;53.556;49.216;2022-08-06T11:29:10;1.83;;;1.62;;
67564;SDS011;54393;53.556;49.216;2022-08-06T11:34:11;1.83;;;1.73;;
67564;SDS011;54393;53.556;49.216;2022-08-06T11:36:44;1.60;;;1.50;;
67564;SDS011;54393;53.556;49.216;2022-08-06T11:39:22;1.55;;;1.50;;
67564;SDS011;54393;53.556;49.216;2022-08-06T11:44:17;1.80;;;1.70;;
67564;SDS011;54393;53.556;49.216;2022-08-06T11:46:44;1.55;;;1.45;;
67564;SDS011;54393;53.556;49.216;2022-08-06T11:54:29;1.40;;;1.30;;
67564;SDS011;54393;53.556;49.216;2022-08-06T11:57:22;1.60;;;1.50;;
67564;SDS011;54393;53.556;49.216;2022-08-06T12:07:45;1.30;;;1.30;;
67564;SDS011;54393;53.556;49.216;2022-08-06T12:10:15;1.67;;;1.50;;
67564;SDS011;54393;53.556;49.216;2022-08-06T12:12:48;1.67;;;1.58;;
67564;SDS011;54393;53.556;49.216;2022-08-06T12:23:11;1.52;;;1.42;;
67564;SDS011;54393;53.556;49.216;2022-08-06T12:28:07;1.33;;;1.20;;
67564;SDS011;54393;53.556;49.216;2022-08-06T12:30:47;1.52;;;1.42;;
67564;SDS011;54393;53.556;49.216;2022-08-06T12:33:14;1.48;;;1.37;;
67564;SDS011;54393;53.556;49.216;2022-08-06T12:38:24;1.48;;;1.40;;
67564;SDS011;54393;53.556;49.216;2022-08-06T12:43:19;1.20;;;1.20;;
67564;SDS011;54393;53.556;49.216;2022-08-06T12:45:45;1.30;;;1.20;;
67564;SDS011;54393;53.556;49.216;2022-08-06T12:48:12;1.20;;;1.10;;
67564;SDS011;54393;53.556;49.216;2022-08-06T12:50:39;1.17;;;1.15;;
67564;SDS011;54393;53.556;49.216;2022-08-06T12:53:07;1.35;;;1.15;;
67564;SDS011;54393;53.556;49.216;2022-08-06T12:55:35;1.58;;;1.48;;
67564;SDS011;54393;53.556;49.216;2022-08-06T12:58:10;1.23;;;1.23;;
67564;SDS011;54393;53.556;49.216;2022-08-06T13:00:37;1.58;;;1.45;;
67564;SDS011;54393;53.556;49.216;2022-08-06T13:03:06;1.90;;;1.48;;
67564;SDS011;54393;53.556;49.216;2022-08-06T13:05:33;1.17;;;1.17;;
67564;SDS011;54393;53.556;49.216;2022-08-06T13:07:59;2.22;;;1.40;;
67564;SDS011;54393;53.556;49.216;2022-08-06T13:10:27;1.30;;;1.20;;
67564;SDS011;54393;53.556;49.216;2022-08-06T13:12:54;1.02;;;1.02;;
67564;SDS011;54393;53.556;49.216;2022-08-06T13:15:22;1.50;;;1.40;;
67564;SDS011;54393;53.556;49.216;2022-08-06T13:20:45;1.35;;;1.23;;
67564;SDS011;54393;53.556;49.216;2022-08-06T13:23:14;1.15;;;1.15;;
67564;SDS011;54393;53.556;49.216;2022-08-06T13:25:42;1.35;;;1.30;;
67564;SDS011;54393;53.556;49.216;2022-08-06T13:28:10;1.20;;;1.20;;
67564;SDS011;54393;53.556;49.216;2022-08-06T13:30:41;1.27;;;1.20;;
67564;SDS011;54393;53.556;49.216;2022-08-06T13:33:14;1.30;;;1.10;;
67564;SDS011;54393;53.556;49.216;2022-08-06T13:38:09;1.30;;;1.20;;
67564;SDS011;54393;53.556;49.216;2022-08-06T13:40:46;1.30;;;1.20;;
67564;SDS011;54393;53.556;49.216;2022-08-06T13:43:13;1.20;;;1.20;;
67564;SDS011;54393;53.556;49.216;2022-08-06T13:45:40;1.20;;;1.20;;
67564;SDS011;54393;53.556;49.216;2022-08-06T13:48:10;1.58;;;1.48;;
67564;SDS011;54393;53.556;49.216;2022-08-06T13:50:40;1.10;;;1.00;;
67564;SDS011;54393;53.556;49.216;2022-08-06T13:53:09;1.50;;;1.40;;
67564;SDS011;54393;53.556;49.216;2022-08-06T13:55:36;1.02;;;1.02;;
67564;SDS011;54393;53.556;49.216;2022-08-06T13:58:03;0.95;;;0.95;;
67564;SDS011;54393;53.556;49.216;2022-08-06T14:00:30;1.65;;;1.15;;
67564;SDS011;54393;53.556;49.216;2022-08-06T14:02:58;1.20;;;1.20;;
67564;SDS011;54393;53.556;49.216;2022-08-06T14:05:24;1.00;;;0.90;;
67564;SDS011;54393;53.556;49.216;2022-08-06T14:07:51;0.82;;;0.82;;
67564;SDS011;54393;53.556;49.216;2022-08-06T14:10:17;1.75;;;0.90;;
67564;SDS011;54393;53.556;49.216;2022-08-06T14:12:44;0.95;;;0.95;;
67564;SDS011;54393;53.556;49.216;2022-08-06T14:15:33;1.17;;;1.10;;
67564;SDS011;54393;53.556;49.216;2022-08-06T14:18:00;1.25;;;1.15;;
67564;SDS011;54393;53.556;49.216;2022-08-06T14:20:27;1.20;;;1.15;;
67564;SDS011;54393;53.556;49.216;2022-08-06T14:22:54;1.12;;;1.12;;
67564;SDS011;54393;53.556;49.216;2022-08-06T14:25:21;1.40;;;1.30;;
67564;SDS011;54393;53.556;49.216;2022-08-06T14:27:48;1.05;;;1.05;;
67564;SDS011;54393;53.556;49.216;2022-08-06T14:30:15;1.00;;;1.00;;
67564;SDS011;54393;53.556;49.216;2022-08-06T14:32:42;0.93;;;0.93;;
67564;SDS011;54393;53.556;49.216;2022-08-06T14:35:09;1.00;;;1.00;;
67564;SDS011;54393;53.556;49.216;2022-08-06T14:37:38;1.10;;;1.00;;
67564;SDS011;54393;53.556;49.216;2022-08-06T14:40:04;1.08;;;1.08;;
67564;SDS011;54393;53.556;49.216;2022-08-06T14:42:31;1.33;;;1.23;;
67564;SDS011;54393;53.556;49.216;2022-08-06T14:47:43;1.17;;;1.08;;
67564;SDS011;54393;53.556;49.216;2022-08-06T14:50:09;1.92;;;1.10;;
67564;SDS011;54393;53.556;49.216;2022-08-06T14:52:36;1.23;;;0.80;;
67564;SDS011;54393;53.556;49.216;2022-08-06T14:55:03;2.33;;;1.00;;
67564;SDS011;54393;53.556;49.216;2022-08-06T14:57:29;1.02;;;1.02;;
67564;SDS011;54393;53.556;49.216;2022-08-06T14:59:56;1.02;;;1.02;;
67564;SDS011;54393;53.556;49.216;2022-08-06T15:02:23;1.85;;;1.42;;
67564;SDS011;54393;53.556;49.216;2022-08-06T15:04:50;1.23;;;1.08;;
67564;SDS011;54393;53.556;49.216;2022-08-06T15:07:16;1.10;;;1.08;;
67564;SDS011;54393;53.556;49.216;2022-08-06T15:09:43;1.15;;;1.10;;
67564;SDS011;54393;53.556;49.216;2022-08-06T15:12:09;1.30;;;1.20;;
67564;SDS011;54393;53.556;49.216;2022-08-06T15:14:36;1.30;;;1.20;;
67564;SDS011;54393;53.556;49.216;2022-08-06T15:17:03;1.25;;;1.08;;
67564;SDS011;54393;53.556;49.216;2022-08-06T15:19:29;1.17;;;1.17;;
67564;SDS011;54393;53.556;49.216;2022-08-06T15:21:56;0.90;;;0.85;;
67564;SDS011;54393;53.556;49.216;2022-08-06T15:24:22;1.52;;;1.42;;
67564;SDS011;54393;53.556;49.216;2022-08-06T15:26:49;1.00;;;1.00;;
67564;SDS011;54393;53.556;49.216;2022-08-06T15:29:15;1.20;;;1.10;;
67564;SDS011;54393;53.556;49.216;2022-08-06T15:31:45;1.30;;;1.20;;
67564;SDS011;54393;53.556;49.216;2022-08-06T15:34:12;1.12;;;1.12;;
67564;SDS011;54393;53.556;49.216;2022-08-06T15:36:39;1.10;;;1.02;;
67564;SDS011;54393;53.556;49.216;2022-08-06T15:39:05;1.10;;;1.08;;
67564;SDS011;54393;53.556;49.216;2022-08-06T15:41:32;1.30;;;1.20;;
67564;SDS011;54393;53.556;49.216;2022-08-06T15:43:58;1.23;;;1.12;;
67564;SDS011;54393;53.556;49.216;2022-08-06T15:46:25;1.40;;;1.30;;
67564;SDS011;54393;53.556;49.216;2022-08-06T15:48:52;1.30;;;1.20;;
67564;SDS011;54393;53.556;49.216;2022-08-06T15:51:24;1.17;;;1.08;;
67564;SDS011;54393;53.556;49.216;2022-08-06T15:53:52;1.58;;;1.48;;
67564;SDS011;54393;53.556;49.216;2022-08-06T15:56:19;1.75;;;1.65;;
67564;SDS011;54393;53.556;49.216;2022-08-06T15:58:46;1.12;;;1.12;;
67564;SDS011;54393;53.556;49.216;2022-08-06T16:01:12;1.30;;;1.20;;
67564;SDS011;54393;53.556;49.216;2022-08-06T16:03:39;1.40;;;1.30;;
67564;SDS011;54393;53.556;49.216;2022-08-06T16:06:05;1.95;;;1.20;;
67564;SDS011;54393;53.556;49.216;2022-08-06T16:08:32;1.20;;;1.20;;
67564;SDS011;54393;53.556;49.216;2022-08-06T16:10:58;1.20;;;1.20;;
67564;SDS011;54393;53.556;49.216;2022-08-06T16:13:25;1.42;;;1.30;;
67564;SDS011;54393;53.556;49.216;2022-08-06T16:15:51;1.48;;;1.37;;
67564;SDS011;54393;53.556;49.216;2022-08-06T16:18:21;1.83;;;1.52;;
67564;SDS011;54393;53.556;49.216;2022-08-06T16:20:49;3.33;;;1.37;;
67564;SDS011;54393;53.556;49.216;2022-08-06T16:23:16;1.67;;;1.58;;
67564;SDS011;54393;53.556;49.216;2022-08-06T16:25:43;1.40;;;1.30;;